sensor_id;sensor_type;location;lat;lon;timestamp;pressure;altitude;pressure_sealevel;temperature;humidity
59757;BME280;45631;51.962;5.974;2023-04-15T00:01:57;100714.25;;;7.47;100.00
59757;BME280;45631;51.962;5.974;2023-04-15T00:04:26;100709.09;;;7.45;100.00
59757;BME280;45631;51.962;5.974;2023-04-15T00:06:55;100713.91;;;7.37;100.00
59757;BME280;45631;51.962;5.974;2023-04-15T00:09:23;100707.91;;;7.35;100.00
59757;BME280;45631;51.962;5.974;2023-04-15T00:11:52;100707.41;;;7.28;100.00
59757;BME280;45631;51.962;5.974;2023-04-15T00:14:20;100713.66;;;7.25;100.00
59757;BME280;45631;51.962;5.974;2023-04-15T00:16:48;100711.09;;;7.24;100.00
59757;BME280;45631;51.962;5.974;2023-04-15T00:19:22;100706.88;;;7.21;100.00
59757;BME280;45631;51.962;5.974;2023-04-15T00:21:51;100709.91;;;7.14;100.00
59757;BME280;45631;51.962;5.974;2023-04-15T00:24:19;100719.66;;;7.10;100.00
59757;BME280;45631;51.962;5.974;2023-04-15T00:26:47;100711.28;;;7.03;100.00
59757;BME280;45631;51.962;5.974;2023-04-15T00:29:17;100718.59;;;6.97;100.00
59757;BME280;45631;51.962;5.974;2023-04-15T00:31:45;100722.25;;;6.94;100.00
59757;BME280;45631;51.962;5.974;2023-04-15T00:34:13;100715.56;;;6.88;100.00
59757;BME280;45631;51.962;5.974;2023-04-15T00:36:42;100712.19;;;6.86;100.00
59757;BME280;45631;51.962;5.974;2023-04-15T00:39:10;100722.66;;;6.86;100.00
59757;BME280;45631;51.962;5.974;2023-04-15T00:41:38;100718.50;;;6.82;100.00
59757;BME280;45631;51.962;5.974;2023-04-15T00:44:06;100717.81;;;6.79;100.00
59757;BME280;45631;51.962;5.974;2023-04-15T00:46:37;100710.94;;;6.76;100.00
59757;BME280;45631;51.962;5.974;2023-04-15T00:49:06;100717.25;;;6.72;100.00
59757;BME280;45631;51.962;5.974;2023-04-15T00:51:34;100716.50;;;6.70;100.00
59757;BME280;45631;51.962;5.974;2023-04-15T00:54:03;100714.91;;;6.67;100.00
59757;BME280;45631;51.962;5.974;2023-04-15T00:56:34;100711.59;;;6.64;100.00
59757;BME280;45631;51.962;5.974;2023-04-15T00:59:04;100721.19;;;6.63;100.00
59757;BME280;45631;51.962;5.974;2023-04-15T01:01:34;100715.81;;;6.66;100.00
59757;BME280;45631;51.962;5.974;2023-04-15T01:04:04;100717.59;;;6.66;100.00
59757;BME280;45631;51.962;5.974;2023-04-15T01:06:32;100723.13;;;6.59;100.00
59757;BME280;45631;51.962;5.974;2023-04-15T01:09:00;100721.50;;;6.57;100.00
59757;BME280;45631;51.962;5.974;2023-04-15T01:11:31;100714.66;;;6.54;100.00
59757;BME280;45631;51.962;5.974;2023-04-15T01:14:00;100721.81;;;6.51;100.00
59757;BME280;45631;51.962;5.974;2023-04-15T01:16:28;100727.97;;;6.50;100.00
59757;BME280;45631;51.962;5.974;2023-04-15T01:18:56;100731.56;;;6.47;100.00
59757;BME280;45631;51.962;5.974;2023-04-15T01:21:26;100729.03;;;6.46;100.00
59757;BME280;45631;51.962;5.974;2023-04-15T01:23:55;100730.03;;;6.43;100.00
59757;BME280;45631;51.962;5.974;2023-04-15T01:26:25;100730.03;;;6.43;100.00
59757;BME280;45631;51.962;5.974;2023-04-15T01:28:54;100729.19;;;6.42;100.00
59757;BME280;45631;51.962;5.974;2023-04-15T01:31:22;100731.88;;;6.41;100.00
59757;BME280;45631;51.962;5.974;2023-04-15T01:33:50;100726.03;;;6.36;100.00
59757;BME280;45631;51.962;5.974;2023-04-15T01:36:18;100727.78;;;6.35;100.00
59757;BME280;45631;51.962;5.974;2023-04-15T01:38:47;100728.72;;;6.34;100.00
59757;BME280;45631;51.962;5.974;2023-04-15T01:41:15;100723.59;;;6.33;100.00
59757;BME280;45631;51.962;5.974;2023-04-15T01:43:47;100730.78;;;6.28;100.00
59757;BME280;45631;51.962;5.974;2023-04-15T01:46:15;100724.66;;;6.29;100.00
59757;BME280;45631;51.962;5.974;2023-04-15T01:48:46;100729.94;;;6.27;100.00
59757;BME280;45631;51.962;5.974;2023-04-15T01:51:14;100726.56;;;6.25;100.00
59757;BME280;45631;51.962;5.974;2023-04-15T01:53:42;100731.06;;;6.21;100.00
59757;BME280;45631;51.962;5.974;2023-04-15T01:56:10;100722.41;;;6.21;100.00
59757;BME280;45631;51.962;5.974;2023-04-15T01:58:38;100730.25;;;6.21;100.00
59757;BME280;45631;51.962;5.974;2023-04-15T02:01:08;100732.06;;;6.19;100.00
59757;BME280;45631;51.962;5.974;2023-04-15T02:03:37;100726.94;;;6.17;100.00
59757;BME280;45631;51.962;5.974;2023-04-15T02:06:05;100727.88;;;6.16;100.00
59757;BME280;45631;51.962;5.974;2023-04-15T02:08:33;100729.69;;;6.14;100.00
59757;BME280;45631;51.962;5.974;2023-04-15T02:11:01;100730.69;;;6.12;100.00
59757;BME280;45631;51.962;5.974;2023-04-15T02:13:30;100735.91;;;6.12;100.00
59757;BME280;45631;51.962;5.974;2023-04-15T02:15:58;100728.22;;;6.08;100.00
59757;BME280;45631;51.962;5.974;2023-04-15T02:18:27;100731.84;;;6.06;100.00
59757;BME280;45631;51.962;5.974;2023-04-15T02:20:55;100739.44;;;6.11;100.00
59757;BME280;45631;51.962;5.974;2023-04-15T02:23:24;100732.47;;;6.11;100.00
59757;BME280;45631;51.962;5.974;2023-04-15T02:25:52;100734.28;;;6.09;100.00
59757;BME280;45631;51.962;5.974;2023-04-15T02:28:20;100741.50;;;6.04;100.00
59757;BME280;45631;51.962;5.974;2023-04-15T02:30:48;100743.34;;;6.02;100.00
59757;BME280;45631;51.962;5.974;2023-04-15T02:33:20;100742.56;;;6.00;100.00
59757;BME280;45631;51.962;5.974;2023-04-15T02:35:51;100741.72;;;5.99;100.00
59757;BME280;45631;51.962;5.974;2023-04-15T02:38:19;100751.31;;;5.99;100.00
59757;BME280;45631;51.962;5.974;2023-04-15T02:40:47;100751.31;;;5.99;100.00
59757;BME280;45631;51.962;5.974;2023-04-15T02:43:16;100755.81;;;5.95;100.00
59757;BME280;45631;51.962;5.974;2023-04-15T02:45:45;100754.84;;;5.98;100.00
59757;BME280;45631;51.962;5.974;2023-04-15T02:48:14;100760.78;;;6.01;100.00
59757;BME280;45631;51.962;5.974;2023-04-15T02:50:45;100760.19;;;5.95;100.00
59757;BME280;45631;51.962;5.974;2023-04-15T02:53:17;100760.19;;;5.95;100.00
59757;BME280;45631;51.962;5.974;2023-04-15T02:55:46;100767.91;;;5.98;100.00
59757;BME280;45631;51.962;5.974;2023-04-15T02:58:14;100767.16;;;5.94;100.00
59757;BME280;45631;51.962;5.974;2023-04-15T03:00:45;100759.47;;;5.91;100.00
59757;BME280;45631;51.962;5.974;2023-04-15T03:03:13;100763.44;;;6.00;100.00
59757;BME280;45631;51.962;5.974;2023-04-15T03:05:43;100762.00;;;5.92;100.00
59757;BME280;45631;51.962;5.974;2023-04-15T03:08:11;100764.84;;;5.88;100.00
59757;BME280;45631;51.962;5.974;2023-04-15T03:10:42;100760.53;;;5.87;100.00
59757;BME280;45631;51.962;5.974;2023-04-15T03:13:10;100770.19;;;5.85;100.00
59757;BME280;45631;51.962;5.974;2023-04-15T03:15:38;100767.66;;;5.83;100.00
59757;BME280;45631;51.962;5.974;2023-04-15T03:18:06;100771.06;;;5.85;100.00
59757;BME280;45631;51.962;5.974;2023-04-15T03:20:34;100765.69;;;5.88;100.00
59757;BME280;45631;51.962;5.974;2023-04-15T03:23:03;100766.66;;;5.86;100.00
59757;BME280;45631;51.962;5.974;2023-04-15T03:25:31;100768.53;;;5.84;100.00
59757;BME280;45631;51.962;5.974;2023-04-15T03:28:00;100771.22;;;5.82;100.00
59757;BME280;45631;51.962;5.974;2023-04-15T03:30:28;100775.50;;;5.83;100.00
59757;BME280;45631;51.962;5.974;2023-04-15T03:32:56;100778.09;;;5.83;100.00
59757;BME280;45631;51.962;5.974;2023-04-15T03:35:25;100781.50;;;5.85;100.00
59757;BME280;45631;51.962;5.974;2023-04-15T03:37:53;100778.25;;;5.80;100.00
59757;BME280;45631;51.962;5.974;2023-04-15T03:40:21;100779.94;;;5.81;100.00
59757;BME280;45631;51.962;5.974;2023-04-15T03:42:49;100785.16;;;5.81;100.00
59757;BME280;45631;51.962;5.974;2023-04-15T03:45:21;100787.00;;;5.79;100.00
59757;BME280;45631;51.962;5.974;2023-04-15T03:47:49;100785.84;;;5.85;100.00
59757;BME280;45631;51.962;5.974;2023-04-15T03:50:19;100786.88;;;5.82;100.00
59757;BME280;45631;51.962;5.974;2023-04-15T03:52:47;100801.75;;;5.80;100.00
59757;BME280;45631;51.962;5.974;2023-04-15T03:55:16;100788.91;;;5.75;100.00
59757;BME280;45631;51.962;5.974;2023-04-15T03:57:45;100797.66;;;5.74;100.00
59757;BME280;45631;51.962;5.974;2023-04-15T04:00:13;100791.44;;;5.77;100.00
59757;BME280;45631;51.962;5.974;2023-04-15T04:02:43;100804.84;;;5.69;100.00
59757;BME280;45631;51.962;5.974;2023-04-15T04:05:12;100807.66;;;5.65;100.00
59757;BME280;45631;51.962;5.974;2023-04-15T04:07:40;100796.44;;;5.63;100.00
59757;BME280;45631;51.962;5.974;2023-04-15T04:10:08;100800.81;;;5.62;100.00
59757;BME280;45631;51.962;5.974;2023-04-15T04:12:39;100806.09;;;5.61;100.00
59757;BME280;45631;51.962;5.974;2023-04-15T04:15:10;100809.63;;;5.59;100.00
59757;BME280;45631;51.962;5.974;2023-04-15T04:17:38;100823.66;;;5.57;100.00
59757;BME280;45631;51.962;5.974;2023-04-15T04:20:08;100819.28;;;5.57;100.00
59757;BME280;45631;51.962;5.974;2023-04-15T04:22:39;100819.41;;;5.54;100.00
59757;BME280;45631;51.962;5.974;2023-04-15T04:25:08;100822.09;;;5.53;100.00
59757;BME280;45631;51.962;5.974;2023-04-15T04:27:36;100829.00;;;5.54;100.00
59757;BME280;45631;51.962;5.974;2023-04-15T04:30:06;100835.00;;;5.56;100.00
59757;BME280;45631;51.962;5.974;2023-04-15T04:32:34;100833.66;;;5.47;100.00
59757;BME280;45631;51.962;5.974;2023-04-15T04:35:03;100839.00;;;5.44;100.00
59757;BME280;45631;51.962;5.974;2023-04-15T04:37:33;100837.38;;;5.41;100.00
59757;BME280;45631;51.962;5.974;2023-04-15T04:40:01;100840.97;;;5.39;100.00
59757;BME280;45631;51.962;5.974;2023-04-15T04:42:29;100848.97;;;5.34;100.00
59757;BME280;45631;51.962;5.974;2023-04-15T04:44:57;100856.16;;;5.29;100.00
59757;BME280;45631;51.962;5.974;2023-04-15T04:47:25;100859.69;;;5.28;100.00
59757;BME280;45631;51.962;5.974;2023-04-15T04:49:53;100867.50;;;5.28;100.00
59757;BME280;45631;51.962;5.974;2023-04-15T04:52:22;100865.88;;;5.25;100.00
59757;BME280;45631;51.962;5.974;2023-04-15T04:54:51;100876.16;;;5.29;100.00
59757;BME280;45631;51.962;5.974;2023-04-15T04:57:19;100873.69;;;5.25;100.00
59757;BME280;45631;51.962;5.974;2023-04-15T04:59:47;100878.91;;;5.25;100.00
59757;BME280;45631;51.962;5.974;2023-04-15T05:02:18;100879.81;;;5.24;100.00
59757;BME280;45631;51.962;5.974;2023-04-15T05:04:46;100884.34;;;5.21;100.00
59757;BME280;45631;51.962;5.974;2023-04-15T05:07:15;100882.56;;;5.21;100.00
59757;BME280;45631;51.962;5.974;2023-04-15T05:09:43;100889.34;;;5.25;100.00
59757;BME280;45631;51.962;5.974;2023-04-15T05:12:13;100886.16;;;5.19;100.00
59757;BME280;45631;51.962;5.974;2023-04-15T05:14:41;100895.47;;;5.24;100.00
59757;BME280;45631;51.962;5.974;2023-04-15T05:17:09;100900.69;;;5.24;100.00
59757;BME280;45631;51.962;5.974;2023-04-15T05:19:38;100903.41;;;5.21;100.00
59757;BME280;45631;51.962;5.974;2023-04-15T05:22:06;100908.72;;;5.20;100.00
59757;BME280;45631;51.962;5.974;2023-04-15T05:24:34;100906.09;;;5.20;100.00
59757;BME280;45631;51.962;5.974;2023-04-15T05:27:03;100909.53;;;5.20;100.00
59757;BME280;45631;51.962;5.974;2023-04-15T05:29:32;100912.94;;;5.22;100.00
59757;BME280;45631;51.962;5.974;2023-04-15T05:32:00;100911.25;;;5.21;100.00
59757;BME280;45631;51.962;5.974;2023-04-15T05:34:28;100916.22;;;5.28;100.00
59757;BME280;45631;51.962;5.974;2023-04-15T05:36:56;100922.00;;;5.34;100.00
59757;BME280;45631;51.962;5.974;2023-04-15T05:39:24;100923.84;;;5.32;100.00
59757;BME280;45631;51.962;5.974;2023-04-15T05:41:53;100922.06;;;5.33;100.00
59757;BME280;45631;51.962;5.974;2023-04-15T05:44:21;100936.69;;;5.37;100.00
59757;BME280;45631;51.962;5.974;2023-04-15T05:46:50;100933.09;;;5.39;100.00
59757;BME280;45631;51.962;5.974;2023-04-15T05:49:19;100939.69;;;5.48;100.00
59757;BME280;45631;51.962;5.974;2023-04-15T05:51:47;100939.44;;;5.54;100.00
59757;BME280;45631;51.962;5.974;2023-04-15T05:54:15;100934.94;;;5.58;100.00
59757;BME280;45631;51.962;5.974;2023-04-15T05:56:46;100935.44;;;5.66;100.00
59757;BME280;45631;51.962;5.974;2023-04-15T05:59:14;100943.06;;;5.71;100.00
59757;BME280;45631;51.962;5.974;2023-04-15T06:01:42;100944.53;;;5.78;100.00
59757;BME280;45631;51.962;5.974;2023-04-15T06:04:12;100951.94;;;5.87;100.00
59757;BME280;45631;51.962;5.974;2023-04-15T06:06:41;100952.28;;;6.00;100.00
59757;BME280;45631;51.962;5.974;2023-04-15T06:09:09;100958.69;;;6.12;100.00
59757;BME280;45631;51.962;5.974;2023-04-15T06:11:37;100958.53;;;6.17;100.00
59757;BME280;45631;51.962;5.974;2023-04-15T06:14:07;100965.72;;;6.31;100.00
59757;BME280;45631;51.962;5.974;2023-04-15T06:16:35;100974.22;;;6.36;100.00
59757;BME280;45631;51.962;5.974;2023-04-15T06:19:03;100972.25;;;6.41;100.00
59757;BME280;45631;51.962;5.974;2023-04-15T06:21:33;100984.19;;;6.47;100.00
59757;BME280;45631;51.962;5.974;2023-04-15T06:24:01;100984.81;;;6.52;100.00
59757;BME280;45631;51.962;5.974;2023-04-15T06:26:29;100986.38;;;6.56;100.00
59757;BME280;45631;51.962;5.974;2023-04-15T06:28:58;100993.19;;;6.58;100.00
59757;BME280;45631;51.962;5.974;2023-04-15T06:31:26;101006.91;;;6.64;100.00
59757;BME280;45631;51.962;5.974;2023-04-15T06:33:54;100994.56;;;6.67;100.00
59757;BME280;45631;51.962;5.974;2023-04-15T06:36:23;100999.56;;;6.72;100.00
59757;BME280;45631;51.962;5.974;2023-04-15T06:38:52;101012.50;;;6.75;100.00
59757;BME280;45631;51.962;5.974;2023-04-15T06:41:20;101015.88;;;6.77;100.00
59757;BME280;45631;51.962;5.974;2023-04-15T06:43:48;101014.19;;;6.76;100.00
59757;BME280;45631;51.962;5.974;2023-04-15T06:46:17;101026.19;;;6.80;100.00
59757;BME280;45631;51.962;5.974;2023-04-15T06:48:45;101025.06;;;6.86;100.00
59757;BME280;45631;51.962;5.974;2023-04-15T06:51:13;101030.34;;;6.84;100.00
59757;BME280;45631;51.962;5.974;2023-04-15T06:53:42;101034.41;;;6.91;100.00
59757;BME280;45631;51.962;5.974;2023-04-15T06:56:11;101033.47;;;6.92;100.00
59757;BME280;45631;51.962;5.974;2023-04-15T06:58:39;101043.66;;;6.99;100.00
59757;BME280;45631;51.962;5.974;2023-04-15T07:01:07;101038.19;;;7.03;100.00
59757;BME280;45631;51.962;5.974;2023-04-15T07:03:35;101037.13;;;7.07;100.00
59757;BME280;45631;51.962;5.974;2023-04-15T07:06:03;101039.63;;;7.10;100.00
59757;BME280;45631;51.962;5.974;2023-04-15T07:08:32;101045.53;;;7.14;100.00
59757;BME280;45631;51.962;5.974;2023-04-15T07:11:00;101046.22;;;7.18;100.00
59757;BME280;45631;51.962;5.974;2023-04-15T07:13:31;101052.50;;;7.33;100.00
59757;BME280;45631;51.962;5.974;2023-04-15T07:15:59;101056.94;;;7.31;100.00
59757;BME280;45631;51.962;5.974;2023-04-15T07:18:27;101057.38;;;7.40;100.00
59757;BME280;45631;51.962;5.974;2023-04-15T07:20:55;101055.84;;;7.36;100.00
59757;BME280;45631;51.962;5.974;2023-04-15T07:23:24;101067.53;;;7.47;100.00
59757;BME280;45631;51.962;5.974;2023-04-15T07:25:52;101071.84;;;7.48;100.00
59757;BME280;45631;51.962;5.974;2023-04-15T07:28:20;101070.78;;;7.52;100.00
59757;BME280;45631;51.962;5.974;2023-04-15T07:30:53;101076.66;;;7.57;100.00
59757;BME280;45631;51.962;5.974;2023-04-15T07:33:22;101082.03;;;7.71;100.00
59757;BME280;45631;51.962;5.974;2023-04-15T07:35:51;101085.34;;;7.75;100.00
59757;BME280;45631;51.962;5.974;2023-04-15T07:38:19;101089.69;;;7.76;100.00
59757;BME280;45631;51.962;5.974;2023-04-15T07:40:47;101090.22;;;7.83;100.00
59757;BME280;45631;51.962;5.974;2023-04-15T07:43:15;101093.22;;;7.92;100.00
59757;BME280;45631;51.962;5.974;2023-04-15T07:45:44;101096.16;;;8.04;100.00
59757;BME280;45631;51.962;5.974;2023-04-15T07:48:14;101092.19;;;8.12;100.00
59757;BME280;45631;51.962;5.974;2023-04-15T07:50:45;101091.28;;;8.31;100.00
59757;BME280;45631;51.962;5.974;2023-04-15T07:53:13;101098.56;;;8.42;100.00
59757;BME280;45631;51.962;5.974;2023-04-15T07:55:41;101108.16;;;8.60;100.00
59757;BME280;45631;51.962;5.974;2023-04-15T07:58:09;101106.19;;;8.64;100.00
59757;BME280;45631;51.962;5.974;2023-04-15T08:00:38;101112.41;;;8.79;100.00
59757;BME280;45631;51.962;5.974;2023-04-15T08:03:06;101114.34;;;8.91;100.00
59757;BME280;45631;51.962;5.974;2023-04-15T08:05:36;101120.81;;;9.02;100.00
59757;BME280;45631;51.962;5.974;2023-04-15T08:08:04;101113.38;;;9.10;100.00
59757;BME280;45631;51.962;5.974;2023-04-15T08:10:32;101120.84;;;9.18;100.00
59757;BME280;45631;51.962;5.974;2023-04-15T08:13:01;101121.25;;;9.26;100.00
59757;BME280;45631;51.962;5.974;2023-04-15T08:15:29;101120.06;;;9.32;100.00
59757;BME280;45631;51.962;5.974;2023-04-15T08:17:58;101122.59;;;9.49;100.00
59757;BME280;45631;51.962;5.974;2023-04-15T08:20:27;101125.97;;;9.51;100.00
59757;BME280;45631;51.962;5.974;2023-04-15T08:22:57;101125.75;;;9.56;100.00
59757;BME280;45631;51.962;5.974;2023-04-15T08:25:25;101126.88;;;9.66;100.00
59757;BME280;45631;51.962;5.974;2023-04-15T08:27:54;101133.56;;;9.72;100.00
59757;BME280;45631;51.962;5.974;2023-04-15T08:30:22;101131.03;;;9.70;100.00
59757;BME280;45631;51.962;5.974;2023-04-15T08:32:50;101134.84;;;9.80;100.00
59757;BME280;45631;51.962;5.974;2023-04-15T08:35:19;101127.13;;;9.77;100.00
59757;BME280;45631;51.962;5.974;2023-04-15T08:37:47;101133.63;;;9.86;100.00
59757;BME280;45631;51.962;5.974;2023-04-15T08:40:18;101140.50;;;9.89;100.00
59757;BME280;45631;51.962;5.974;2023-04-15T08:42:49;101146.34;;;9.94;100.00
59757;BME280;45631;51.962;5.974;2023-04-15T08:45:19;101147.84;;;9.98;100.00
59757;BME280;45631;51.962;5.974;2023-04-15T08:47:51;101147.41;;;10.06;100.00
59757;BME280;45631;51.962;5.974;2023-04-15T08:50:24;101156.06;;;10.08;100.00
59757;BME280;45631;51.962;5.974;2023-04-15T08:52:54;101150.50;;;10.12;100.00
59757;BME280;45631;51.962;5.974;2023-04-15T08:55:24;101155.72;;;10.28;100.00
59757;BME280;45631;51.962;5.974;2023-04-15T08:57:53;101151.81;;;10.36;100.00
59757;BME280;45631;51.962;5.974;2023-04-15T09:00:21;101159.75;;;10.50;100.00
59757;BME280;45631;51.962;5.974;2023-04-15T09:02:50;101166.69;;;10.51;100.00
59757;BME280;45631;51.962;5.974;2023-04-15T09:05:19;101167.63;;;10.50;100.00
59757;BME280;45631;51.962;5.974;2023-04-15T09:07:51;101167.25;;;10.56;100.00
59757;BME280;45631;51.962;5.974;2023-04-15T09:10:20;101173.84;;;10.63;100.00
59757;BME280;45631;51.962;5.974;2023-04-15T09:12:49;101176.59;;;10.76;100.00
59757;BME280;45631;51.962;5.974;2023-04-15T09:15:17;101177.13;;;10.96;100.00
59757;BME280;45631;51.962;5.974;2023-04-15T09:17:46;101179.50;;;11.01;100.00
59757;BME280;45631;51.962;5.974;2023-04-15T09:20:15;101181.84;;;11.20;100.00
59757;BME280;45631;51.962;5.974;2023-04-15T09:22:47;101182.56;;;11.36;100.00
59757;BME280;45631;51.962;5.974;2023-04-15T09:25:24;101180.44;;;11.56;100.00
59757;BME280;45631;51.962;5.974;2023-04-15T09:27:56;101197.41;;;11.79;100.00
59757;BME280;45631;51.962;5.974;2023-04-15T09:30:24;101197.97;;;11.98;100.00
59757;BME280;45631;51.962;5.974;2023-04-15T09:32:56;101198.81;;;12.12;100.00
59757;BME280;45631;51.962;5.974;2023-04-15T09:35:25;101196.28;;;12.10;100.00
59757;BME280;45631;51.962;5.974;2023-04-15T09:38:02;101195.19;;;12.27;100.00
59757;BME280;45631;51.962;5.974;2023-04-15T09:40:34;101194.34;;;12.40;100.00
59757;BME280;45631;51.962;5.974;2023-04-15T09:43:05;101199.63;;;12.52;100.00
59757;BME280;45631;51.962;5.974;2023-04-15T09:45:34;101210.00;;;12.68;100.00
59757;BME280;45631;51.962;5.974;2023-04-15T09:48:16;101203.22;;;12.77;100.00
59757;BME280;45631;51.962;5.974;2023-04-15T09:50:45;101205.78;;;12.92;100.00
59757;BME280;45631;51.962;5.974;2023-04-15T09:53:16;101209.78;;;13.10;100.00
59757;BME280;45631;51.962;5.974;2023-04-15T09:55:48;101219.78;;;13.18;100.00
59757;BME280;45631;51.962;5.974;2023-04-15T09:58:19;101217.59;;;13.12;100.00
59757;BME280;45631;51.962;5.974;2023-04-15T10:00:48;101230.47;;;13.42;100.00
59757;BME280;45631;51.962;5.974;2023-04-15T10:03:18;101221.66;;;13.55;100.00
59757;BME280;45631;51.962;5.974;2023-04-15T10:05:50;101236.44;;;13.57;100.00
59757;BME280;45631;51.962;5.974;2023-04-15T10:08:21;101220.88;;;13.65;100.00
59757;BME280;45631;51.962;5.974;2023-04-15T10:10:50;101226.50;;;13.85;100.00
59757;BME280;45631;51.962;5.974;2023-04-15T10:13:21;101223.31;;;13.93;100.00
59757;BME280;45631;51.962;5.974;2023-04-15T10:15:55;101222.97;;;13.97;100.00
59757;BME280;45631;51.962;5.974;2023-04-15T10:18:27;101222.97;;;13.97;100.00
59757;BME280;45631;51.962;5.974;2023-04-15T10:20:55;101228.44;;;13.83;100.00
59757;BME280;45631;51.962;5.974;2023-04-15T10:23:24;101233.50;;;13.86;100.00
59757;BME280;45631;51.962;5.974;2023-04-15T10:25:53;101238.00;;;13.97;100.00
59757;BME280;45631;51.962;5.974;2023-04-15T10:28:23;101248.97;;;13.79;100.00
59757;BME280;45631;51.962;5.974;2023-04-15T10:30:52;101251.03;;;13.63;100.00
59757;BME280;45631;51.962;5.974;2023-04-15T10:33:22;101240.28;;;13.53;100.00
59757;BME280;45631;51.962;5.974;2023-04-15T10:35:52;101250.31;;;13.61;100.00
59757;BME280;45631;51.962;5.974;2023-04-15T10:38:34;101250.78;;;13.66;100.00
59757;BME280;45631;51.962;5.974;2023-04-15T10:41:13;101245.69;;;14.00;100.00
59757;BME280;45631;51.962;5.974;2023-04-15T10:43:47;101247.16;;;14.28;100.00
59757;BME280;45631;51.962;5.974;2023-04-15T10:46:18;101250.97;;;14.48;100.00
59757;BME280;45631;51.962;5.974;2023-04-15T10:48:48;101277.84;;;14.07;100.00
59757;BME280;45631;51.962;5.974;2023-04-15T10:51:26;101254.66;;;13.86;100.00
59757;BME280;45631;51.962;5.974;2023-04-15T10:53:58;101259.72;;;14.13;100.00
59757;BME280;45631;51.962;5.974;2023-04-15T10:56:28;101260.50;;;14.02;100.00
59757;BME280;45631;51.962;5.974;2023-04-15T10:58:59;101255.66;;;14.20;100.00
59757;BME280;45631;51.962;5.974;2023-04-15T11:01:50;101260.84;;;14.22;100.00
59757;BME280;45631;51.962;5.974;2023-04-15T11:04:50;101256.69;;;14.42;100.00
59757;BME280;45631;51.962;5.974;2023-04-15T11:07:38;101257.41;;;14.33;95.71
59757;BME280;45631;51.962;5.974;2023-04-15T11:13:23;101256.34;;;14.71;93.05
59757;BME280;45631;51.962;5.974;2023-04-15T11:15:59;101253.81;;;14.69;91.40
59757;BME280;45631;51.962;5.974;2023-04-15T11:18:29;101254.44;;;14.84;90.26
59757;BME280;45631;51.962;5.974;2023-04-15T11:21:00;101252.78;;;14.95;91.05
59757;BME280;45631;51.962;5.974;2023-04-15T11:23:34;101264.69;;;14.89;92.63
59757;BME280;45631;51.962;5.974;2023-04-15T11:26:03;101261.88;;;14.68;93.91
59757;BME280;45631;51.962;5.974;2023-04-15T11:28:36;101272.56;;;14.66;95.03
59757;BME280;45631;51.962;5.974;2023-04-15T11:31:08;101263.72;;;14.90;95.52
59757;BME280;45631;51.962;5.974;2023-04-15T11:33:43;101263.03;;;15.33;93.99
59757;BME280;45631;51.962;5.974;2023-04-15T11:36:15;101263.16;;;15.20;91.47
59757;BME280;45631;51.962;5.974;2023-04-15T11:38:47;101271.34;;;15.29;91.10
59757;BME280;45631;51.962;5.974;2023-04-15T11:41:20;101270.88;;;15.12;87.29
59757;BME280;45631;51.962;5.974;2023-04-15T11:43:49;101284.94;;;15.13;86.09
59757;BME280;45631;51.962;5.974;2023-04-15T11:46:19;101278.56;;;15.27;85.99
59757;BME280;45631;51.962;5.974;2023-04-15T11:48:48;101277.94;;;15.80;84.78
59757;BME280;45631;51.962;5.974;2023-04-15T11:51:16;101282.41;;;15.79;82.24
59757;BME280;45631;51.962;5.974;2023-04-15T11:53:49;101295.31;;;15.50;82.73
59757;BME280;45631;51.962;5.974;2023-04-15T11:56:18;101287.13;;;15.64;82.32
59757;BME280;45631;51.962;5.974;2023-04-15T11:58:47;101286.88;;;15.56;84.16
59757;BME280;45631;51.962;5.974;2023-04-15T12:01:30;101290.72;;;15.63;83.22
59757;BME280;45631;51.962;5.974;2023-04-15T12:03:58;101288.66;;;15.55;86.30
59757;BME280;45631;51.962;5.974;2023-04-15T12:06:31;101298.72;;;15.41;81.52
59757;BME280;45631;51.962;5.974;2023-04-15T12:09:05;101298.22;;;15.35;84.81
59757;BME280;45631;51.962;5.974;2023-04-15T12:11:45;101299.41;;;15.43;84.22
59757;BME280;45631;51.962;5.974;2023-04-15T12:14:21;101309.53;;;15.60;85.84
59757;BME280;45631;51.962;5.974;2023-04-15T12:16:52;101308.22;;;15.54;83.10
59757;BME280;45631;51.962;5.974;2023-04-15T12:19:29;101307.00;;;15.70;85.62
59757;BME280;45631;51.962;5.974;2023-04-15T12:22:00;101313.59;;;15.76;85.30
59757;BME280;45631;51.962;5.974;2023-04-15T12:24:31;101314.22;;;15.57;84.53
59757;BME280;45631;51.962;5.974;2023-04-15T12:27:01;101325.78;;;15.55;83.61
59757;BME280;45631;51.962;5.974;2023-04-15T12:29:30;101321.34;;;15.56;84.59
59757;BME280;45631;51.962;5.974;2023-04-15T12:32:05;101331.69;;;15.59;81.67
59757;BME280;45631;51.962;5.974;2023-04-15T12:34:35;101329.03;;;15.93;78.44
59757;BME280;45631;51.962;5.974;2023-04-15T12:37:06;101333.47;;;16.15;80.99
59757;BME280;45631;51.962;5.974;2023-04-15T12:39:37;101334.28;;;16.27;81.88
59757;BME280;45631;51.962;5.974;2023-04-15T12:42:06;101342.66;;;15.77;82.79
59757;BME280;45631;51.962;5.974;2023-04-15T12:44:35;101336.03;;;15.94;79.36
59757;BME280;45631;51.962;5.974;2023-04-15T12:47:06;101334.66;;;16.22;76.38
59757;BME280;45631;51.962;5.974;2023-04-15T12:49:35;101346.03;;;16.13;78.15
59757;BME280;45631;51.962;5.974;2023-04-15T12:52:03;101335.97;;;16.17;78.03
59757;BME280;45631;51.962;5.974;2023-04-15T12:54:32;101340.38;;;16.07;78.87
59757;BME280;45631;51.962;5.974;2023-04-15T12:57:01;101348.00;;;15.88;79.02
59757;BME280;45631;51.962;5.974;2023-04-15T12:59:33;101347.13;;;15.65;79.75
59757;BME280;45631;51.962;5.974;2023-04-15T13:02:05;101351.94;;;15.60;80.81
59757;BME280;45631;51.962;5.974;2023-04-15T13:04:33;101359.19;;;15.92;76.86